Time,TemperatureF,DewpointF,PressureIn,WindDirection,WindDirectionDegrees,WindSpeedMPH,WindSpeedGustMPH,Humidity,HourlyPrecipIn,Conditions,Clouds,dailyrainin,SoftwareType,DateUTC
2013-01-07 00:02:00,29.0,8.0,-100.00,West,270,2.0,4.0,40,0.00,,,0.00,,2013-01-07 07:02:00,
2013-01-07 00:12:00,29.0,8.0,-100.00,West,270,2.0,4.0,40,0.00,,,0.00,,2013-01-07 07:12:00,
2013-01-07 00:22:00,29.0,8.0,-100.00,West,270,2.0,4.0,40,0.00,,,0.00,,2013-01-07 07:22:00,
2013-01-07 00:33:00,29.0,8.0,-100.00,West,270,2.0,4.0,40,0.00,,,0.00,,2013-01-07 07:33:00,
2013-01-07 00:40:00,26.0,8.0,-100.00,NW,310,2.0,5.0,45,0.00,,,0.00,,2013-01-07 07:40:00,
2013-01-07 01:03:00,26.0,8.0,-100.00,NW,310,2.0,5.0,45,0.00,,,0.00,,2013-01-07 08:03:00,
2013-01-07 01:12:00,26.0,8.0,-100.00,NW,310,2.0,5.0,45,0.00,,,0.00,,2013-01-07 08:12:00,
2013-01-07 01:22:00,26.0,8.0,-100.00,NW,310,2.0,5.0,45,0.00,,,0.00,,2013-01-07 08:22:00,
2013-01-07 01:32:00,26.0,8.0,-100.00,NW,310,2.0,5.0,45,0.00,,,0.00,,2013-01-07 08:32:00,
2013-01-07 01:40:00,27.0,8.0,-100.00,NW,307,2.0,7.0,43,0.00,,,0.00,,2013-01-07 08:40:00,
2013-01-07 02:02:00,27.0,8.0,-100.00,NW,307,2.0,7.0,43,0.00,,,0.00,,2013-01-07 09:02:00,
2013-01-07 02:12:00,27.0,8.0,-100.00,NW,307,2.0,7.0,43,0.00,,,0.00,,2013-01-07 09:12:00,
2013-01-07 02:22:00,27.0,8.0,-100.00,NW,307,2.0,7.0,43,0.00,,,0.00,,2013-01-07 09:22:00,
2013-01-07 02:32:00,27.0,8.0,-100.00,NW,307,2.0,7.0,43,0.00,,,0.00,,2013-01-07 09:32:00,
2013-01-07 02:40:00,28.0,8.0,-100.00,SW,228,1.0,3.0,42,0.00,,,0.00,,2013-01-07 09:40:00,
2013-01-07 03:02:00,28.0,8.0,-100.00,SW,228,1.0,3.0,42,0.00,,,0.00,,2013-01-07 10:02:00,
2013-01-07 03:12:00,28.0,8.0,-100.00,SW,228,1.0,3.0,42,0.00,,,0.00,,2013-01-07 10:12:00,
2013-01-07 03:22:00,28.0,8.0,-100.00,SW,228,1.0,3.0,42,0.00,,,0.00,,2013-01-07 10:22:00,
2013-01-07 03:32:00,28.0,8.0,-100.00,SW,228,1.0,3.0,42,0.00,,,0.00,,2013-01-07 10:32:00,
2013-01-07 03:40:00,27.0,9.0,-100.00,SW,230,2.0,3.0,45,0.00,,,0.00,,2013-01-07 10:40:00,
2013-01-07 04:02:00,27.0,9.0,-100.00,SW,230,2.0,3.0,45,0.00,,,0.00,,2013-01-07 11:02:00,
2013-01-07 04:12:00,27.0,9.0,-100.00,SW,230,2.0,3.0,45,0.00,,,0.00,,2013-01-07 11:12:00,
2013-01-07 04:22:00,27.0,9.0,-100.00,SW,230,2.0,3.0,45,0.00,,,0.00,,2013-01-07 11:22:00,
2013-01-07 04:33:00,27.0,9.0,-100.00,SW,230,2.0,3.0,45,0.00,,,0.00,,2013-01-07 11:33:00,
2013-01-07 04:40:00,26.0,7.0,-100.00,NNW,337,3.0,10.0,44,0.00,,,0.00,,2013-01-07 11:40:00,
2013-01-07 05:03:00,26.0,7.0,-100.00,NNW,337,3.0,10.0,44,0.00,,,0.00,,2013-01-07 12:03:00,
2013-01-07 05:12:00,26.0,7.0,-100.00,NNW,337,3.0,10.0,44,0.00,,,0.00,,2013-01-07 12:12:00,
2013-01-07 05:22:00,26.0,7.0,-100.00,NNW,337,3.0,10.0,44,0.00,,,0.00,,2013-01-07 12:22:00,
2013-01-07 05:33:00,26.0,7.0,-100.00,NNW,337,3.0,10.0,44,0.00,,,0.00,,2013-01-07 12:33:00,
2013-01-07 05:40:00,23.0,7.0,-100.00,NNW,331,1.0,5.0,50,0.00,,,0.00,,2013-01-07 12:40:00,
2013-01-07 06:02:00,23.0,7.0,-100.00,NNW,331,1.0,5.0,50,0.00,,,0.00,,2013-01-07 13:02:00,
2013-01-07 06:12:00,23.0,7.0,-100.00,NNW,331,1.0,5.0,50,0.00,,,0.00,,2013-01-07 13:12:00,
2013-01-07 06:23:00,23.0,7.0,-100.00,NNW,331,1.0,5.0,50,0.00,,,0.00,,2013-01-07 13:23:00,
2013-01-07 06:33:00,23.0,7.0,-100.00,NNW,331,1.0,5.0,50,0.00,,,0.00,,2013-01-07 13:33:00,
2013-01-07 06:40:00,20.0,7.0,-100.00,NW,308,2.0,4.0,56,0.00,,,0.00,,2013-01-07 13:40:00,
2013-01-07 07:03:00,20.0,7.0,-100.00,NW,308,2.0,4.0,56,0.00,,,0.00,,2013-01-07 14:03:00,
2013-01-07 07:12:00,20.0,7.0,-100.00,NW,308,2.0,4.0,56,0.00,,,0.00,,2013-01-07 14:12:00,
2013-01-07 07:22:00,20.0,7.0,-100.00,NW,308,2.0,4.0,56,0.00,,,0.00,,2013-01-07 14:22:00,
2013-01-07 07:33:00,20.0,7.0,-100.00,NW,308,2.0,4.0,56,0.00,,,0.00,,2013-01-07 14:33:00,
2013-01-07 07:40:00,23.0,4.0,-100.00,North,1,3.0,14.0,43,0.00,,,0.00,,2013-01-07 14:40:00,
2013-01-07 08:03:00,23.0,4.0,-100.00,North,1,3.0,14.0,43,0.00,,,0.00,,2013-01-07 15:03:00,
2013-01-07 08:12:00,23.0,4.0,-100.00,North,1,3.0,14.0,43,0.00,,,0.00,,2013-01-07 15:12:00,
2013-01-07 08:22:00,23.0,4.0,-100.00,North,1,3.0,14.0,43,0.00,,,0.00,,2013-01-07 15:22:00,
2013-01-07 08:33:00,23.0,4.0,-100.00,North,1,3.0,14.0,43,0.00,,,0.00,,2013-01-07 15:33:00,
2013-01-07 08:40:00,26.0,6.0,-100.00,NNW,342,7.0,12.0,42,0.00,,,0.00,,2013-01-07 15:40:00,
2013-01-07 09:02:00,26.0,6.0,-100.00,NNW,342,7.0,12.0,42,0.00,,,0.00,,2013-01-07 16:02:00,
2013-01-07 09:12:00,26.0,6.0,-100.00,NNW,342,7.0,12.0,42,0.00,,,0.00,,2013-01-07 16:12:00,
2013-01-07 09:22:00,26.0,6.0,-100.00,NNW,342,7.0,12.0,42,0.00,,,0.00,,2013-01-07 16:22:00,
2013-01-07 09:33:00,26.0,6.0,-100.00,NNW,342,7.0,12.0,42,0.00,,,0.00,,2013-01-07 16:33:00,
2013-01-07 09:40:00,27.0,3.0,-100.00,NNW,346,7.0,14.0,35,0.00,,,0.00,,2013-01-07 16:40:00,
2013-01-07 10:03:00,27.0,3.0,-100.00,NNW,346,7.0,14.0,35,0.00,,,0.00,,2013-01-07 17:03:00,
2013-01-07 10:12:00,27.0,3.0,-100.00,NNW,346,7.0,14.0,35,0.00,,,0.00,,2013-01-07 17:12:00,
2013-01-07 10:23:00,27.0,3.0,-100.00,NNW,346,7.0,14.0,35,0.00,,,0.00,,2013-01-07 17:23:00,
2013-01-07 10:33:00,27.0,3.0,-100.00,NNW,346,7.0,14.0,35,0.00,,,0.00,,2013-01-07 17:33:00,
2013-01-07 10:40:00,34.0,5.0,-100.00,NNW,346,6.0,17.0,29,0.00,,,0.00,,2013-01-07 17:40:00,
2013-01-07 11:03:00,34.0,5.0,-100.00,NNW,346,6.0,17.0,29,0.00,,,0.00,,2013-01-07 18:03:00,
2013-01-07 11:12:00,34.0,5.0,-100.00,NNW,346,6.0,17.0,29,0.00,,,0.00,,2013-01-07 18:12:00,
2013-01-07 11:23:00,34.0,5.0,-100.00,NNW,346,6.0,17.0,29,0.00,,,0.00,,2013-01-07 18:23:00,
2013-01-07 11:32:00,34.0,5.0,-100.00,NNW,346,6.0,17.0,29,0.00,,,0.00,,2013-01-07 18:32:00,
2013-01-07 11:40:00,39.0,6.0,-100.00,North,360,4.0,11.0,25,0.00,,,0.00,,2013-01-07 18:40:00,
2013-01-07 12:03:00,39.0,6.0,-100.00,North,360,4.0,11.0,25,0.00,,,0.00,,2013-01-07 19:03:00,
2013-01-07 12:12:00,39.0,6.0,-100.00,North,360,4.0,11.0,25,0.00,,,0.00,,2013-01-07 19:12:00,
2013-01-07 12:22:00,39.0,6.0,-100.00,North,360,4.0,11.0,25,0.00,,,0.00,,2013-01-07 19:22:00,
2013-01-07 12:33:00,39.0,6.0,-100.00,North,360,4.0,11.0,25,0.00,,,0.00,,2013-01-07 19:33:00,
2013-01-07 12:40:00,43.0,9.0,-100.00,ESE,106,5.0,11.0,24,0.00,,,0.00,,2013-01-07 19:40:00,
2013-01-07 13:03:00,43.0,9.0,-100.00,ESE,106,5.0,11.0,24,0.00,,,0.00,,2013-01-07 20:03:00,
2013-01-07 13:12:00,43.0,9.0,-100.00,ESE,106,5.0,11.0,24,0.00,,,0.00,,2013-01-07 20:12:00,
2013-01-07 13:23:00,43.0,9.0,-100.00,ESE,106,5.0,11.0,24,0.00,,,0.00,,2013-01-07 20:23:00,
2013-01-07 13:33:00,43.0,9.0,-100.00,ESE,106,5.0,11.0,24,0.00,,,0.00,,2013-01-07 20:33:00,
2013-01-07 13:40:00,41.0,8.0,-100.00,ENE,75,5.0,11.0,25,0.00,,,0.00,,2013-01-07 20:40:00,
2013-01-07 14:03:00,41.0,8.0,-100.00,ENE,75,5.0,11.0,25,0.00,,,0.00,,2013-01-07 21:03:00,
2013-01-07 14:12:00,41.0,8.0,-100.00,ENE,75,5.0,11.0,25,0.00,,,0.00,,2013-01-07 21:12:00,
2013-01-07 14:23:00,41.0,8.0,-100.00,ENE,75,5.0,11.0,25,0.00,,,0.00,,2013-01-07 21:23:00,
2013-01-07 14:33:00,41.0,8.0,-100.00,ENE,75,5.0,11.0,25,0.00,,,0.00,,2013-01-07 21:33:00,
2013-01-07 14:40:00,39.0,6.0,-100.00,NNE,31,4.0,8.0,25,0.00,,,0.00,,2013-01-07 21:40:00,
2013-01-07 15:03:00,39.0,6.0,-100.00,NNE,31,4.0,8.0,25,0.00,,,0.00,,2013-01-07 22:03:00,
2013-01-07 15:12:00,39.0,6.0,-100.00,NNE,31,4.0,8.0,25,0.00,,,0.00,,2013-01-07 22:12:00,
2013-01-07 15:22:00,39.0,6.0,-100.00,NNE,31,4.0,8.0,25,0.00,,,0.00,,2013-01-07 22:22:00,
2013-01-07 15:33:00,39.0,6.0,-100.00,NNE,31,4.0,8.0,25,0.00,,,0.00,,2013-01-07 22:33:00,
2013-01-07 15:40:00,38.0,9.0,-100.00,NNW,346,4.0,10.0,29,0.00,,,0.00,,2013-01-07 22:40:00,
2013-01-07 16:02:00,38.0,9.0,-100.00,NNW,346,4.0,10.0,29,0.00,,,0.00,,2013-01-07 23:02:00,
2013-01-07 16:12:00,38.0,9.0,-100.00,NNW,346,4.0,10.0,29,0.00,,,0.00,,2013-01-07 23:12:00,
2013-01-07 16:22:00,38.0,9.0,-100.00,NNW,346,4.0,10.0,29,0.00,,,0.00,,2013-01-07 23:22:00,
2013-01-07 16:33:00,38.0,9.0,-100.00,NNW,346,4.0,10.0,29,0.00,,,0.00,,2013-01-07 23:33:00,
2013-01-07 16:40:00,37.0,7.0,-100.00,NNW,347,4.0,9.0,28,0.00,,,0.00,,2013-01-07 23:40:00,
2013-01-07 17:03:00,37.0,7.0,-100.00,NNW,347,4.0,9.0,28,0.00,,,0.00,,2013-01-08 00:03:00,
2013-01-07 17:12:00,37.0,7.0,-100.00,NNW,347,4.0,9.0,28,0.00,,,0.00,,2013-01-08 00:12:00,
2013-01-07 17:22:00,37.0,7.0,-100.00,NNW,347,4.0,9.0,28,0.00,,,0.00,,2013-01-08 00:22:00,
2013-01-07 17:33:00,37.0,7.0,-100.00,NNW,347,4.0,9.0,28,0.00,,,0.00,,2013-01-08 00:33:00,
2013-01-07 17:40:00,30.0,7.0,-100.00,NNW,330,4.0,8.0,37,0.00,,,0.00,,2013-01-08 00:40:00,
2013-01-07 18:03:00,30.0,7.0,-100.00,NNW,330,4.0,8.0,37,0.00,,,0.00,,2013-01-08 01:03:00,
2013-01-07 18:12:00,30.0,7.0,-100.00,NNW,330,4.0,8.0,37,0.00,,,0.00,,2013-01-08 01:12:00,
2013-01-07 18:22:00,30.0,7.0,-100.00,NNW,330,4.0,8.0,37,0.00,,,0.00,,2013-01-08 01:22:00,
2013-01-07 18:33:00,30.0,7.0,-100.00,NNW,330,4.0,8.0,37,0.00,,,0.00,,2013-01-08 01:33:00,
2013-01-07 18:40:00,30.0,5.0,-100.00,NNW,333,5.0,10.0,34,0.00,,,0.00,,2013-01-08 01:40:00,
2013-01-07 19:02:00,30.0,5.0,-100.00,NNW,333,5.0,10.0,34,0.00,,,0.00,,2013-01-08 02:02:00,
2013-01-07 19:12:00,30.0,5.0,-100.00,NNW,333,5.0,10.0,34,0.00,,,0.00,,2013-01-08 02:12:00,
2013-01-07 19:22:00,30.0,5.0,-100.00,NNW,333,5.0,10.0,34,0.00,,,0.00,,2013-01-08 02:22:00,
2013-01-07 19:33:00,30.0,5.0,-100.00,NNW,333,5.0,10.0,34,0.00,,,0.00,,2013-01-08 02:33:00,
2013-01-07 19:40:00,27.0,4.0,-100.00,NW,317,3.0,9.0,36,0.00,,,0.00,,2013-01-08 02:40:00,
2013-01-07 20:03:00,27.0,4.0,-100.00,NW,317,3.0,9.0,36,0.00,,,0.00,,2013-01-08 03:03:00,
2013-01-07 20:12:00,27.0,4.0,-100.00,NW,317,3.0,9.0,36,0.00,,,0.00,,2013-01-08 03:12:00,
2013-01-07 20:22:00,27.0,4.0,-100.00,NW,317,3.0,9.0,36,0.00,,,0.00,,2013-01-08 03:22:00,
2013-01-07 20:32:00,27.0,4.0,-100.00,NW,317,3.0,9.0,36,0.00,,,0.00,,2013-01-08 03:32:00,
2013-01-07 20:40:00,28.0,6.0,-100.00,North,358,6.0,11.0,38,0.00,,,0.00,,2013-01-08 03:40:00,
2013-01-07 21:02:00,28.0,6.0,-100.00,North,358,6.0,11.0,38,0.00,,,0.00,,2013-01-08 04:02:00,
2013-01-07 21:12:00,28.0,6.0,-100.00,North,358,6.0,11.0,38,0.00,,,0.00,,2013-01-08 04:12:00,
2013-01-07 21:22:00,28.0,6.0,-100.00,North,358,6.0,11.0,38,0.00,,,0.00,,2013-01-08 04:22:00,
2013-01-07 21:32:00,28.0,6.0,-100.00,North,358,6.0,11.0,38,0.00,,,0.00,,2013-01-08 04:32:00,
2013-01-07 21:40:00,26.0,7.0,-100.00,North,2,5.0,11.0,43,0.00,,,0.00,,2013-01-08 04:40:00,
2013-01-07 22:03:00,26.0,7.0,-100.00,North,2,5.0,11.0,43,0.00,,,0.00,,2013-01-08 05:03:00,
2013-01-07 22:12:00,26.0,7.0,-100.00,North,2,5.0,11.0,43,0.00,,,0.00,,2013-01-08 05:12:00,
2013-01-07 22:22:00,26.0,7.0,-100.00,North,2,5.0,11.0,43,0.00,,,0.00,,2013-01-08 05:22:00,
2013-01-07 22:33:00,26.0,7.0,-100.00,North,2,5.0,11.0,43,0.00,,,0.00,,2013-01-08 05:33:00,
2013-01-07 22:40:00,21.0,4.0,-100.00,NW,321,3.0,8.0,48,0.00,,,0.00,,2013-01-08 05:40:00,
2013-01-07 23:02:00,21.0,4.0,-100.00,NW,321,3.0,8.0,48,0.00,,,0.00,,2013-01-08 06:02:00,
2013-01-07 23:12:00,21.0,4.0,-100.00,NW,321,3.0,8.0,48,0.00,,,0.00,,2013-01-08 06:12:00,
2013-01-07 23:22:00,21.0,4.0,-100.00,NW,321,3.0,8.0,48,0.00,,,0.00,,2013-01-08 06:22:00,
2013-01-07 23:33:00,21.0,4.0,-100.00,NW,321,3.0,8.0,48,0.00,,,0.00,,2013-01-08 06:33:00,
2013-01-07 23:40:00,25.0,8.0,-100.00,North,350,6.0,15.0,47,0.00,,,0.00,,2013-01-08 06:40:00,